ENSB Airport Information

Runway Information
Runway 10 Length 7608 ft width 148 ft
Elevation 63 ft Threshold 199 ft Heading 105
Runway 28 Length 7608 ft Width 148 ft
Elevation 73 ft Threshold 395 ft Heading 285
Airport Frequencies
Type AFIS Name INFO Frequency 118.1 MHZ
Type AFIS Name INFO Frequency 884 MHZ
Airport Navaids
Airport Weather Information & NOTAM
ADDS - METARS form results

(0829 UTC 18 July 2018)
 
METAR text: ENSB 180820Z 27004KT 9999 FEW020 BKN100 07/03 Q1018 NOSIG RMK WIND 1400FT VRB02KT
Conditions at: ENSB (SVALBARD/LONGYEA, NO) observed 0820 UTC 18 July 2018
Temperature: 7.0°C (45°F)
Dewpoint: 3.0°C (37°F) [RH = 76%]
Pressure (altimeter): 30.06 inches Hg (1018.0 mb)
Winds: from the W (270 degrees) at 5 MPH (4 knots; 2.1 m/s)
Visibility: 6 or more miles (10+ km)
Ceiling: 10000 feet AGL
Clouds: few clouds at 2000 feet AGL
broken clouds at 10000 feet AGL
Weather: no significant weather observed at this time

METAR text: ENSB 180750Z 27004KT 9999 FEW020 SCT100 07/03 Q1018 NOSIG RMK WIND 1400FT VRB02KT
Conditions at: ENSB (SVALBARD/LONGYEA, NO) observed 0750 UTC 18 July 2018
Temperature: 7.0°C (45°F)
Dewpoint: 3.0°C (37°F) [RH = 76%]
Pressure (altimeter): 30.06 inches Hg (1018.0 mb)
Winds: from the W (270 degrees) at 5 MPH (4 knots; 2.1 m/s)
Visibility: 6 or more miles (10+ km)
Ceiling: at least 12,000 feet AGL
Clouds: few clouds at 2000 feet AGL
scattered clouds at 10000 feet AGL
Weather: no significant weather observed at this time